メインページ
METAR-TAF:

METAR-TAF

空港 :

トロンハイム, ノルウェー

緯度: 63-28N, 経度: 010-56E, 海抜: 1m

現時点の気象観測

当レポートは35分前の12:20(UTC)に作成
西の風 7kt
気温 16°C
湿度 88%
気圧 996 hPa
視程10km以上
1,500メートル以下は雲なし、積乱雲なし

METAR: ENVA 191220Z 26007KT CAVOK 16/14 Q0996 NOSIG RMK WIND 670FT 31004KT

時間: 14:55 (12:55 UTC)

予報

当レポートは1時間55分前の11:00(UTC)に作成
予報は19日の 12時(UTC)から 20日の 12時(UTC)まで有効
の風 8kt
視程10km以上
高度2000ftの雲はほとんどない
高度5000ftの雲は散在している
確率 40% :
19日の 12時(UTC)から 19日の 15時(UTC)まで一時的に
西の風 15kt、最大25ktの突風を伴う
高度2000ftの千切れ雲あり, 積乱雲.
にわか雨
19日の 19時(UTC)から 19日の 21時(UTC)まで徐々に
南/南東の風 18kt、最大30ktの突風を伴う
19日の 23時(UTC)から 20日の 02時(UTC)まで徐々に
南/南西の風 10kt

TAF: ENVA 191100Z 1912/2012 10008KT 9999 FEW020 SCT050 PROB40 TEMPO 1912/1915 26015G25KT SHRA BKN020CB BECMG 1919/1921 16018G30KT BECMG 1923/2002 21010KT

4,000以上の空港の気象観測と天気予報(METAR報とTAF報)

利用可能な観測所は地図上に黄色い丸と赤い丸で示す。

丸の上にカーソルを重ねると観測所名を参照できる。

次にクリックすると気象観測と天気予報を参照できる。

マップの切り替え:黒色「×」印の緑ボタンをクリックして拡大、「-」印の緑ボタンをクリックして縮小、緑色の三角印をクリックして隣りの地図に切り替え


METAR-TAF: